Hode, Kentucky
Current Conditions -  °F | °C
As of 2:15 PM on Thursday 23 Oct 2014 (Local Time) from KSJS Reporting Station
Overcast Overcast  
Wind Chill: 55°   Ceiling: 3100
Heat Index: 55°   Visibility: 10mi
Dew Point: 42°   Wind: 6mph
Humidity: 62%   Direction: 40°NE
Pressure: 30.17"   Gusts: NA
Location:  37.8582°N, 82.4429°W
Report Text: KSJS 231815Z AUTO 04005KT 360V090 10SM OVC031 13/05 A3017 RMK AO2 T01260054
Loading
Personal Weather Stations






























Interactive Weather Map
Tropical Storm Tracking
New forecast layout! Learn more

10-Day Weather Forecast

Advertisements
Track Severe Weather on mobile